Galva, IA (51020)

5:57 AM CDT on August 28, 2015 (GMT -0500)
Holstein Ag Services, LLC | | Change Station
CLOSE
Current Station
Personal Weather Station
Location: Holstein, IA
Elevation: 1381 ft
Nearby Weather Stations

Elev 1381 ft 42.50 °N, 95.54 °W | Updated 12 seconds ago

Rain
Rain
62.9 °F
Feels Like 62.9 °F
N
19.0
Wind Variable Wind from East
Gusts 25.0 mph

Today
High -- | Low -- °F
--% Chance of Precip.
Yesterday
High -- | Low -- °F
Precip. -- in
6:42 AM 8:02 PM
Waxing Gibbous, 97% visible
Pressure 29.90 in
Visibility 3.0 miles
Clouds Overcast 300 ft
Dew Point 62 °F
Humidity 98%
Rainfall 0.97 in
Snow Depth Not available.
UV 0 out of 12
Pollen 7.70 out of 12
Air Quality Not available.
Flu Activity Not available.
METAR KSLB 281035Z AUTO 12014G20KT 3SM RA OVC003 17/17 A2990 RMK AO2
Pressure 29.90 in
Visibility 3.0 miles
Clouds Overcast 300 ft
Dew Point 62 °F
Humidity 98%
Rainfall 0.97 in
Snow Depth Not available.
UV 0 out of 12
Pollen 7.70 out of 12
Air Quality Not available.
Flu Activity Not available.
METAR KSLB 281035Z AUTO 12014G20KT 3SM RA OVC003 17/17 A2990 RMK AO2

10-Day Weather Forecast

×

Almanac

Astronomy

Aug. 28, 2015 Rise Set
Actual Time
Civil Twilight
Nautical Twilight
Astronomical Twilight
Moon
Length of Visible Light
Length of Day
Tomorrow will be .
, % of the Moon is Illuminated

Today's Extremes

State Highs State Lows

Community

WunderPhotos

Upload Photos

1,850,368 photos uploaded!

WunderBlogs® & News

Nearby

Air Quality

  Air Quality AQ Index Pollutant
Not available.

Snow Depth

Station Depth Elevation

Earthquake Activity

City Distance Mag. Time & Date
Minimum magnitude displayed is 2.5.

Coastal Water Temperatures

Place Temperature

Stations

Nearby Weather Stations

Station Location Temp. Windchill Dew Point Humidity Wind Precip. Elev Updated Type